createdAt,value
2023-11-22T00:01:43.153Z,17.10
2023-11-22T00:04:46.042Z,13.05
2023-11-22T00:07:49.295Z,16.50
2023-11-22T00:10:52.533Z,17.38
2023-11-22T00:13:58.485Z,16.88
2023-11-22T00:17:03.571Z,17.67
2023-11-22T00:20:07.931Z,16.30
2023-11-22T00:23:11.043Z,16.07
2023-11-22T00:26:14.317Z,16.77
2023-11-22T00:29:20.942Z,24.50
2023-11-22T00:32:24.960Z,19.53
2023-11-22T00:35:28.318Z,19.52
2023-11-22T00:38:31.695Z,15.80
2023-11-22T00:41:36.905Z,16.08
2023-11-22T00:44:40.154Z,17.42
2023-11-22T00:47:44.055Z,17.88
2023-11-22T00:50:47.357Z,14.35
2023-11-22T00:53:51.212Z,11.83
2023-11-22T00:56:54.180Z,20.20
2023-11-22T00:59:57.262Z,19.38
2023-11-22T01:03:00.585Z,15.53
2023-11-22T01:06:04.201Z,15.95
2023-11-22T01:09:10.165Z,17.52
2023-11-22T01:12:14.346Z,16.63
2023-11-22T01:15:17.875Z,15.98
2023-11-22T01:18:21.097Z,13.70
2023-11-22T01:21:24.977Z,17.05
2023-11-22T01:24:29.418Z,20.43
2023-11-22T01:27:32.555Z,16.98
2023-11-22T01:30:35.748Z,15.18
2023-11-22T01:33:39.066Z,13.30
2023-11-22T01:36:45.867Z,17.58
2023-11-22T01:39:50.287Z,14.25
2023-11-22T01:42:55.878Z,13.07
2023-11-22T01:45:58.906Z,14.15
2023-11-22T01:49:02.506Z,19.35
2023-11-22T01:52:06.098Z,13.70
2023-11-22T01:55:10.829Z,14.63
2023-11-22T01:58:14.094Z,18.52
2023-11-22T02:01:17.251Z,15.73
2023-11-22T02:04:21.668Z,21.50
2023-11-22T02:07:24.978Z,18.50
2023-11-22T02:10:28.162Z,15.25
2023-11-22T02:13:32.654Z,14.20
2023-11-22T02:16:36.705Z,13.90
2023-11-22T02:19:39.863Z,16.77
2023-11-22T02:22:48.241Z,17.52
2023-11-22T02:25:51.459Z,15.20
2023-11-22T02:28:54.626Z,13.25
2023-11-22T02:31:57.859Z,14.27
2023-11-22T02:35:02.146Z,16.57
2023-11-22T02:38:06.813Z,16.48
2023-11-22T02:41:10.606Z,16.00
2023-11-22T02:44:18.564Z,14.10
2023-11-22T02:47:21.791Z,14.20
2023-11-22T02:50:24.770Z,17.50
2023-11-22T02:53:28.577Z,16.90
2023-11-22T02:56:32.201Z,13.53
2023-11-22T02:59:35.216Z,15.82
2023-11-22T03:02:38.674Z,14.40
2023-11-22T03:05:41.875Z,15.30
2023-11-22T03:08:45.830Z,13.98
2023-11-22T03:11:49.107Z,13.77
2023-11-22T03:14:52.330Z,19.50
2023-11-22T03:17:55.895Z,19.45
2023-11-22T03:20:59.044Z,14.23
2023-11-22T03:24:05.040Z,17.83
2023-11-22T03:27:08.149Z,14.57
2023-11-22T03:30:13.363Z,14.93
2023-11-22T03:33:16.737Z,15.95
2023-11-22T03:36:19.837Z,21.77
2023-11-22T03:39:23.923Z,37.58
2023-11-22T03:42:28.152Z,28.20
2023-11-22T03:45:31.043Z,22.67
2023-11-22T03:48:34.287Z,23.63
2023-11-22T03:51:37.812Z,15.45
2023-11-22T03:54:41.369Z,18.10
2023-11-22T03:57:45.231Z,21.23
2023-11-22T04:00:48.844Z,17.85
2023-11-22T04:03:53.058Z,17.73
2023-11-22T04:06:56.355Z,19.10
2023-11-22T04:09:59.485Z,20.15
2023-11-22T04:13:02.623Z,18.20
2023-11-22T04:16:09.801Z,21.58
2023-11-22T04:19:13.473Z,19.77
2023-11-22T04:22:16.634Z,21.77
2023-11-22T04:25:19.838Z,18.15
2023-11-22T04:28:22.650Z,22.67
2023-11-22T04:31:25.896Z,21.08
2023-11-22T04:34:29.289Z,23.92
2023-11-22T04:37:33.804Z,19.97
2023-11-22T04:40:37.123Z,21.85
2023-11-22T04:43:40.181Z,27.77
2023-11-22T04:46:43.077Z,25.30
2023-11-22T04:49:46.366Z,24.70
2023-11-22T04:52:49.293Z,26.02
2023-11-22T04:55:52.223Z,28.05
2023-11-22T04:58:55.333Z,27.50
2023-11-22T05:01:58.871Z,29.83
2023-11-22T05:05:01.833Z,29.35
2023-11-22T05:08:05.413Z,31.63
2023-11-22T05:11:09.239Z,24.90
2023-11-22T05:14:12.624Z,24.80
2023-11-22T05:17:15.545Z,25.92
2023-11-22T05:20:18.952Z,28.50
2023-11-22T05:23:23.301Z,26.60
2023-11-22T05:26:26.996Z,29.48
2023-11-22T05:29:37.686Z,36.13
2023-11-22T05:32:46.167Z,35.80
2023-11-22T05:35:49.793Z,33.08
2023-11-22T05:38:53.026Z,32.23
2023-11-22T05:41:57.961Z,31.85
2023-11-22T05:45:00.786Z,32.30
2023-11-22T05:48:03.712Z,31.27
2023-11-22T05:51:07.281Z,34.88
2023-11-22T05:54:13.035Z,35.08
2023-11-22T05:57:16.639Z,31.75
2023-11-22T06:00:22.123Z,32.93
2023-11-22T06:03:25.422Z,30.55
2023-11-22T06:06:28.683Z,30.15
2023-11-22T06:09:32.064Z,32.13
2023-11-22T06:12:35.223Z,32.53
2023-11-22T06:15:38.643Z,34.47
2023-11-22T06:18:41.798Z,30.92
2023-11-22T06:21:45.092Z,33.95
2023-11-22T06:24:49.627Z,31.00
2023-11-22T06:27:53.174Z,37.72
2023-11-22T06:30:56.265Z,36.57
2023-11-22T06:34:01.038Z,64.60
2023-11-22T06:37:04.382Z,49.85
2023-11-22T06:40:09.473Z,38.40
2023-11-22T06:43:13.168Z,40.65
2023-11-22T06:46:17.775Z,46.92
2023-11-22T06:49:20.714Z,37.55
2023-11-22T06:52:24.039Z,34.70
2023-11-22T06:55:28.626Z,41.15
2023-11-22T06:58:31.822Z,39.03
2023-11-22T07:01:34.810Z,48.33
2023-11-22T07:04:38.519Z,40.13
2023-11-22T07:07:41.817Z,42.45
2023-11-22T07:10:46.445Z,32.03
2023-11-22T07:13:49.693Z,35.60
2023-11-22T07:16:54.957Z,35.65
2023-11-22T07:19:58.545Z,38.70
2023-11-22T07:23:01.686Z,36.47
2023-11-22T07:26:04.765Z,40.10
2023-11-22T07:29:07.746Z,43.75
2023-11-22T07:32:11.759Z,41.60
2023-11-22T07:35:17.128Z,39.40
2023-11-22T07:38:20.868Z,47.97
2023-11-22T07:41:24.217Z,42.17
2023-11-22T07:44:27.194Z,51.20
2023-11-22T07:47:30.366Z,44.72
2023-11-22T07:50:33.865Z,44.17
2023-11-22T07:53:37.700Z,41.13
2023-11-22T07:56:44.572Z,40.85
2023-11-22T07:59:48.984Z,38.70
2023-11-22T08:02:55.673Z,40.63
2023-11-22T08:05:58.901Z,41.10
2023-11-22T08:09:06.181Z,36.13
2023-11-22T08:12:09.408Z,40.50
2023-11-22T08:15:16.923Z,34.03
2023-11-22T08:18:20.422Z,31.38
2023-11-22T08:21:24.385Z,34.60
2023-11-22T08:24:27.992Z,30.52
2023-11-22T08:27:31.269Z,31.05
2023-11-22T08:30:36.931Z,30.88
2023-11-22T08:33:41.073Z,32.63
2023-11-22T08:36:44.679Z,35.08
2023-11-22T08:39:47.627Z,31.98
2023-11-22T08:42:51.250Z,29.00
2023-11-22T08:46:01.464Z,30.63
2023-11-22T08:49:12.809Z,25.77
2023-11-22T08:52:15.956Z,31.20
2023-11-22T08:55:21.499Z,34.83
2023-11-22T08:58:24.871Z,31.65
2023-11-22T09:01:27.960Z,28.95
2023-11-22T09:04:32.891Z,31.17
2023-11-22T09:07:37.143Z,34.47
2023-11-22T09:10:41.119Z,49.75
2023-11-22T09:13:44.364Z,38.10
2023-11-22T09:16:52.055Z,40.35
2023-11-22T09:19:57.416Z,37.33
2023-11-22T09:23:00.524Z,40.65
2023-11-22T09:26:04.778Z,32.30
2023-11-22T09:29:08.054Z,36.72
2023-11-22T09:32:12.031Z,33.80
2023-11-22T09:35:16.618Z,27.03
2023-11-22T09:38:20.152Z,28.52
2023-11-22T09:41:23.474Z,29.15
2023-11-22T09:44:26.886Z,37.73
2023-11-22T09:47:34.382Z,35.20
2023-11-22T09:50:44.339Z,42.30
2023-11-22T09:54:01.953Z,36.90
2023-11-22T09:57:10.025Z,43.25
2023-11-22T10:00:18.089Z,28.20
2023-11-22T10:03:22.349Z,31.25
2023-11-22T10:06:25.750Z,31.67
2023-11-22T10:09:31.068Z,30.70
2023-11-22T10:12:37.913Z,31.50
2023-11-22T10:15:41.188Z,22.57
2023-11-22T10:18:45.556Z,21.88
2023-11-22T10:22:08.255Z,19.35
2023-11-22T10:25:12.044Z,19.58
2023-11-22T10:28:15.299Z,26.35
2023-11-22T10:31:18.529Z,18.45
2023-11-22T10:34:25.428Z,19.80
2023-11-22T10:37:28.472Z,25.63
2023-11-22T10:40:31.677Z,32.88
2023-11-22T10:43:36.543Z,24.13
2023-11-22T10:46:42.853Z,20.80
2023-11-22T10:49:46.208Z,32.10
2023-11-22T10:52:56.592Z,26.77
2023-11-22T10:56:08.117Z,29.75
2023-11-22T10:59:15.411Z,20.38
2023-11-22T11:02:21.804Z,17.42
2023-11-22T11:05:31.454Z,15.85
2023-11-22T11:08:39.414Z,18.63
2023-11-22T11:11:43.520Z,17.33
2023-11-22T11:14:48.313Z,17.23
2023-11-22T11:17:51.998Z,16.23
2023-11-22T11:20:57.897Z,21.58
2023-11-22T11:24:04.756Z,23.77
2023-11-22T11:27:10.942Z,27.85
2023-11-22T11:30:51.443Z,22.80
2023-11-22T11:33:56.997Z,19.55
2023-11-22T11:37:04.950Z,20.63
2023-11-22T11:40:35.798Z,17.70
2023-11-22T11:43:43.936Z,19.45
2023-11-22T11:46:47.093Z,20.98
2023-11-22T11:49:51.944Z,19.80
2023-11-22T11:52:55.395Z,21.50
2023-11-22T11:55:59.451Z,21.40
2023-11-22T11:59:03.649Z,21.35
2023-11-22T12:02:07.250Z,17.52
2023-11-22T12:05:10.764Z,25.55
2023-11-22T12:08:18.501Z,20.02
2023-11-22T12:11:22.018Z,15.20
2023-11-22T12:14:25.121Z,20.90
2023-11-22T12:17:31.100Z,11.73
2023-11-22T12:20:34.280Z,11.43
2023-11-22T12:23:37.795Z,12.98
2023-11-22T12:26:43.087Z,13.13
2023-11-22T12:29:48.358Z,10.75
2023-11-22T12:32:52.856Z,13.65
2023-11-22T12:35:55.870Z,11.50
2023-11-22T12:39:01.686Z,10.50
2023-11-22T12:42:09.597Z,11.27
2023-11-22T12:45:25.982Z,12.05
2023-11-22T12:48:33.958Z,15.57
2023-11-22T12:51:36.918Z,10.30
2023-11-22T12:54:40.068Z,13.25
2023-11-22T12:57:45.698Z,12.93
2023-11-22T13:00:50.578Z,14.57
2023-11-22T13:03:53.644Z,13.63
2023-11-22T13:06:56.790Z,10.88
2023-11-22T13:10:01.073Z,11.82
2023-11-22T13:13:04.006Z,13.83
2023-11-22T13:16:07.343Z,12.00
2023-11-22T13:19:10.621Z,18.35
2023-11-22T13:22:15.030Z,14.30
2023-11-22T13:25:20.420Z,12.98
2023-11-22T13:28:25.608Z,11.98
2023-11-22T13:31:28.699Z,15.63
2023-11-22T13:34:31.933Z,14.73
2023-11-22T13:37:36.574Z,12.05
2023-11-22T13:40:41.327Z,10.90
2023-11-22T13:43:44.341Z,14.50
2023-11-22T13:46:47.397Z,14.13
2023-11-22T13:49:51.310Z,14.75
2023-11-22T13:52:56.579Z,14.53
2023-11-22T13:56:01.690Z,13.52
2023-11-22T13:59:04.653Z,11.52
2023-11-22T14:02:07.557Z,12.73
2023-11-22T14:05:10.885Z,12.43
2023-11-22T14:08:15.100Z,12.32
2023-11-22T14:11:19.049Z,15.15
2023-11-22T14:14:22.264Z,15.20
2023-11-22T14:17:26.123Z,15.07
2023-11-22T14:20:31.237Z,17.92
2023-11-22T14:23:34.851Z,20.00
2023-11-22T14:26:38.235Z,17.23
2023-11-22T14:29:42.113Z,14.60
2023-11-22T14:32:45.591Z,15.20
2023-11-22T14:35:49.033Z,14.70
2023-11-22T14:38:55.670Z,14.30
2023-11-22T14:41:58.938Z,16.42
2023-11-22T14:45:02.110Z,15.97
2023-11-22T14:48:05.651Z,19.48
2023-11-22T14:51:10.408Z,21.98
2023-11-22T14:54:13.412Z,27.23
2023-11-22T14:57:18.589Z,21.90
2023-11-22T15:00:22.444Z,17.67
2023-11-22T15:03:27.913Z,20.10
2023-11-22T15:06:31.694Z,17.25
2023-11-22T15:09:34.854Z,19.42
2023-11-22T15:12:40.667Z,15.75
2023-11-22T15:15:43.940Z,19.60
2023-11-22T15:18:47.240Z,25.80
2023-11-22T15:21:50.487Z,20.65
2023-11-22T15:24:53.781Z,24.80
2023-11-22T15:27:56.909Z,23.30
2023-11-22T15:31:01.417Z,23.73
2023-11-22T15:34:04.957Z,25.63
2023-11-22T15:37:07.929Z,22.45
2023-11-22T15:40:14.185Z,20.17
2023-11-22T15:43:17.795Z,23.75
2023-11-22T15:46:25.569Z,31.17
2023-11-22T15:49:28.966Z,21.25
2023-11-22T15:52:32.162Z,16.73
2023-11-22T15:55:35.364Z,26.77
2023-11-22T15:58:38.272Z,26.10
2023-11-22T16:01:41.706Z,19.70
2023-11-22T16:04:46.389Z,17.40
2023-11-22T16:07:49.617Z,16.55
2023-11-22T16:10:52.622Z,20.80
2023-11-22T16:13:55.581Z,17.90
2023-11-22T16:16:58.878Z,18.40
2023-11-22T16:20:05.562Z,17.98
2023-11-22T16:23:08.984Z,18.85
2023-11-22T16:26:12.473Z,25.70
2023-11-22T16:29:17.161Z,19.58
2023-11-22T16:32:20.799Z,26.95
2023-11-22T16:35:24.381Z,20.25
2023-11-22T16:38:27.385Z,19.90
2023-11-22T16:41:30.325Z,21.67
2023-11-22T16:44:33.723Z,21.73
2023-11-22T16:47:38.271Z,36.50
2023-11-22T16:50:41.863Z,32.08
2023-11-22T16:53:45.849Z,28.92
2023-11-22T16:56:49.357Z,31.60
2023-11-22T16:59:52.640Z,27.48
2023-11-22T17:03:00.866Z,21.27
2023-11-22T17:06:08.471Z,22.90
2023-11-22T17:09:13.209Z,19.83
2023-11-22T17:12:17.676Z,23.27
2023-11-22T17:15:20.790Z,18.50
2023-11-22T17:18:24.820Z,18.60
2023-11-22T17:21:29.335Z,20.95
2023-11-22T17:24:32.429Z,20.00
2023-11-22T17:27:46.012Z,22.83
2023-11-22T17:30:59.334Z,24.27
2023-11-22T17:34:02.769Z,20.70
2023-11-22T17:37:05.678Z,22.60
2023-11-22T17:40:09.075Z,23.98
2023-11-22T17:43:11.940Z,26.50
2023-11-22T17:46:14.970Z,21.52
2023-11-22T17:49:18.044Z,24.83
2023-11-22T17:52:21.484Z,25.00
2023-11-22T17:55:24.861Z,22.08
2023-11-22T17:58:29.067Z,22.27
2023-11-22T18:01:33.054Z,22.58
2023-11-22T18:04:36.455Z,21.40
2023-11-22T18:07:39.902Z,24.13
2023-11-22T18:10:46.909Z,22.90
2023-11-22T18:13:50.701Z,21.77
2023-11-22T18:16:54.804Z,23.35
2023-11-22T18:19:59.661Z,23.47
2023-11-22T18:23:03.795Z,28.45
2023-11-22T18:26:07.817Z,25.48
2023-11-22T18:29:13.245Z,24.43
2023-11-22T18:32:17.355Z,24.67
2023-11-22T18:35:21.334Z,24.02
2023-11-22T18:38:25.269Z,27.10
2023-11-22T18:41:28.919Z,22.42
2023-11-22T18:44:38.000Z,32.72
2023-11-22T18:47:43.319Z,29.50
2023-11-22T18:50:47.147Z,22.70
2023-11-22T18:53:51.073Z,32.22
2023-11-22T18:56:54.939Z,27.48
2023-11-22T18:59:58.422Z,29.87
2023-11-22T19:03:01.950Z,28.02
2023-11-22T19:06:06.442Z,27.63
2023-11-22T19:09:13.015Z,30.25
2023-11-22T19:12:19.203Z,24.27
2023-11-22T19:15:23.552Z,28.55
2023-11-22T19:18:27.485Z,27.65
2023-11-22T19:21:32.985Z,29.93
2023-11-22T19:24:36.416Z,25.85
2023-11-22T19:27:41.166Z,29.85
2023-11-22T19:30:45.256Z,24.40
2023-11-22T19:33:49.183Z,28.60
2023-11-22T19:36:56.029Z,29.58
2023-11-22T19:40:01.670Z,30.48
2023-11-22T19:43:06.786Z,31.38
2023-11-22T19:46:10.958Z,26.75
2023-11-22T19:49:16.417Z,27.83
2023-11-22T19:52:20.164Z,34.73
2023-11-22T19:55:23.835Z,33.20
2023-11-22T19:58:29.608Z,34.35
2023-11-22T20:01:34.506Z,30.07
2023-11-22T20:04:38.625Z,31.60
2023-11-22T20:07:42.587Z,26.60
2023-11-22T20:10:48.042Z,30.63
2023-11-22T20:13:52.386Z,30.45
2023-11-22T20:17:03.799Z,32.90
2023-11-22T20:20:08.403Z,40.20
2023-11-22T20:23:18.750Z,41.13
2023-11-22T20:26:24.296Z,37.22
2023-11-22T20:29:29.160Z,40.28
2023-11-22T20:32:35.247Z,36.33
2023-11-22T20:35:42.816Z,38.03
2023-11-22T20:38:51.239Z,34.78
2023-11-22T20:41:55.925Z,35.67
2023-11-22T20:45:00.613Z,29.70
2023-11-22T20:48:09.054Z,36.47
2023-11-22T20:51:14.307Z,30.85
2023-11-22T20:54:19.310Z,31.73
2023-11-22T20:57:25.179Z,33.58
2023-11-22T21:00:31.991Z,36.72
2023-11-22T21:03:37.700Z,32.43
2023-11-22T21:06:43.596Z,30.92
2023-11-22T21:09:48.187Z,34.50
2023-11-22T21:12:53.067Z,31.42
2023-11-22T21:15:58.682Z,29.45
2023-11-22T21:19:02.665Z,28.42
2023-11-22T21:22:05.687Z,35.78
2023-11-22T21:25:11.206Z,30.53
2023-11-22T21:28:14.725Z,33.17
2023-11-22T21:31:19.327Z,30.98
2023-11-22T21:34:22.618Z,32.07
2023-11-22T21:37:25.435Z,29.10
2023-11-22T21:40:28.704Z,26.42
2023-11-22T21:43:32.487Z,30.75
2023-11-22T21:46:35.383Z,26.50
2023-11-22T21:49:39.124Z,26.63
2023-11-22T21:52:43.811Z,24.27
2023-11-22T21:55:46.876Z,29.67
2023-11-22T21:58:50.081Z,27.40
2023-11-22T22:01:53.706Z,32.97
2023-11-22T22:04:56.728Z,47.20
2023-11-22T22:08:01.008Z,35.83
2023-11-22T22:11:04.831Z,32.58
2023-11-22T22:14:08.068Z,23.83
2023-11-22T22:17:10.950Z,23.92
2023-11-22T22:20:13.983Z,25.02
2023-11-22T22:23:17.538Z,24.38
2023-11-22T22:26:21.037Z,21.53
2023-11-22T22:29:24.282Z,22.00
2023-11-22T22:32:27.899Z,23.30
2023-11-22T22:35:33.899Z,24.73
2023-11-22T22:38:37.342Z,22.10
2023-11-22T22:41:40.190Z,28.30
2023-11-22T22:44:43.394Z,20.50
2023-11-22T22:47:46.740Z,27.33
2023-11-22T22:50:50.397Z,23.50
2023-11-22T22:53:53.860Z,23.73
2023-11-22T22:56:57.002Z,25.20
2023-11-22T23:00:00.315Z,27.13
2023-11-22T23:03:04.342Z,26.27
2023-11-22T23:06:09.287Z,25.57
2023-11-22T23:09:14.527Z,24.35
2023-11-22T23:12:18.936Z,26.05
2023-11-22T23:15:22.146Z,27.77
2023-11-22T23:18:25.391Z,36.28
2023-11-22T23:21:29.085Z,41.17
2023-11-22T23:24:33.250Z,34.00
2023-11-22T23:27:37.095Z,36.27
2023-11-22T23:30:40.363Z,35.55
2023-11-22T23:33:43.967Z,36.28
2023-11-22T23:36:47.259Z,32.13
2023-11-22T23:39:52.829Z,31.58
2023-11-22T23:42:57.532Z,27.92
2023-11-22T23:46:01.052Z,28.52
2023-11-22T23:49:04.272Z,28.60
2023-11-22T23:52:07.793Z,31.40
2023-11-22T23:55:13.980Z,28.80
2023-11-22T23:58:17.249Z,31.07
